sensor_id;sensor_type;location;lat;lon;timestamp;temperature;humidity
7030;DHT22;3556;53.500;10.176;2023-02-28T00:00:13;2.10;99.90
7030;DHT22;3556;53.500;10.176;2023-02-28T00:02:42;2.00;99.90
7030;DHT22;3556;53.500;10.176;2023-02-28T00:05:09;2.00;99.90
7030;DHT22;3556;53.500;10.176;2023-02-28T00:07:35;1.90;99.90
7030;DHT22;3556;53.500;10.176;2023-02-28T00:10:03;1.80;99.90
7030;DHT22;3556;53.500;10.176;2023-02-28T00:12:29;1.80;99.90
7030;DHT22;3556;53.500;10.176;2023-02-28T00:14:55;1.70;99.90
7030;DHT22;3556;53.500;10.176;2023-02-28T00:17:20;1.60;99.90
7030;DHT22;3556;53.500;10.176;2023-02-28T00:19:50;1.50;99.90
7030;DHT22;3556;53.500;10.176;2023-02-28T00:22:19;1.50;99.90
7030;DHT22;3556;53.500;10.176;2023-02-28T00:24:45;1.30;99.90
7030;DHT22;3556;53.500;10.176;2023-02-28T00:27:11;1.30;99.90
7030;DHT22;3556;53.500;10.176;2023-02-28T00:29:37;1.20;99.90
7030;DHT22;3556;53.500;10.176;2023-02-28T00:32:03;1.10;99.90
7030;DHT22;3556;53.500;10.176;2023-02-28T00:34:29;1.00;99.90
7030;DHT22;3556;53.500;10.176;2023-02-28T00:36:55;0.90;99.90
7030;DHT22;3556;53.500;10.176;2023-02-28T00:39:20;0.80;99.90
7030;DHT22;3556;53.500;10.176;2023-02-28T00:41:46;0.70;99.90
7030;DHT22;3556;53.500;10.176;2023-02-28T00:44:12;0.60;99.90
7030;DHT22;3556;53.500;10.176;2023-02-28T00:46:37;0.60;99.90
7030;DHT22;3556;53.500;10.176;2023-02-28T00:49:03;0.50;99.90
7030;DHT22;3556;53.500;10.176;2023-02-28T00:51:28;0.40;99.90
7030;DHT22;3556;53.500;10.176;2023-02-28T00:53:54;0.30;99.90
7030;DHT22;3556;53.500;10.176;2023-02-28T00:56:20;0.20;99.90
7030;DHT22;3556;53.500;10.176;2023-02-28T00:58:45;0.20;99.90
7030;DHT22;3556;53.500;10.176;2023-02-28T01:01:11;0.10;99.90
7030;DHT22;3556;53.500;10.176;2023-02-28T01:03:37;0.10;99.90
7030;DHT22;3556;53.500;10.176;2023-02-28T01:06:02;0.00;99.90
7030;DHT22;3556;53.500;10.176;2023-02-28T01:08:28;-0.10;99.90
7030;DHT22;3556;53.500;10.176;2023-02-28T01:10:54;-0.10;99.90
7030;DHT22;3556;53.500;10.176;2023-02-28T01:13:20;-0.20;99.90
7030;DHT22;3556;53.500;10.176;2023-02-28T01:15:50;-0.20;99.90
7030;DHT22;3556;53.500;10.176;2023-02-28T01:18:16;-0.30;99.90
7030;DHT22;3556;53.500;10.176;2023-02-28T01:20:42;-0.30;99.90
7030;DHT22;3556;53.500;10.176;2023-02-28T01:23:08;-0.40;99.90
7030;DHT22;3556;53.500;10.176;2023-02-28T01:25:37;-0.40;99.90
7030;DHT22;3556;53.500;10.176;2023-02-28T01:28:03;-0.50;99.90
7030;DHT22;3556;53.500;10.176;2023-02-28T01:30:29;-0.50;99.90
7030;DHT22;3556;53.500;10.176;2023-02-28T01:32:54;-0.60;99.90
7030;DHT22;3556;53.500;10.176;2023-02-28T01:35:20;-0.60;99.90
7030;DHT22;3556;53.500;10.176;2023-02-28T01:37:46;-0.70;99.90
7030;DHT22;3556;53.500;10.176;2023-02-28T01:40:12;-0.70;99.90
7030;DHT22;3556;53.500;10.176;2023-02-28T01:42:38;-0.70;99.90
7030;DHT22;3556;53.500;10.176;2023-02-28T01:45:06;-0.80;99.90
7030;DHT22;3556;53.500;10.176;2023-02-28T01:47:42;-0.80;99.90
7030;DHT22;3556;53.500;10.176;2023-02-28T01:50:13;-0.80;99.90
7030;DHT22;3556;53.500;10.176;2023-02-28T01:52:40;-0.90;99.90
7030;DHT22;3556;53.500;10.176;2023-02-28T01:55:07;-0.90;99.90
7030;DHT22;3556;53.500;10.176;2023-02-28T01:57:37;-1.00;99.90
7030;DHT22;3556;53.500;10.176;2023-02-28T02:00:09;-1.00;99.90
7030;DHT22;3556;53.500;10.176;2023-02-28T02:02:36;-1.10;99.90
7030;DHT22;3556;53.500;10.176;2023-02-28T02:05:12;-1.10;99.90
7030;DHT22;3556;53.500;10.176;2023-02-28T02:07:41;-1.20;99.90
7030;DHT22;3556;53.500;10.176;2023-02-28T02:10:18;-1.20;99.90
7030;DHT22;3556;53.500;10.176;2023-02-28T02:13:05;-1.30;99.90
7030;DHT22;3556;53.500;10.176;2023-02-28T02:15:44;-1.30;99.90
7030;DHT22;3556;53.500;10.176;2023-02-28T02:43:50;-1.60;99.90
7030;DHT22;3556;53.500;10.176;2023-02-28T02:46:38;-1.70;99.90
7030;DHT22;3556;53.500;10.176;2023-02-28T02:49:24;-1.70;99.90
7030;DHT22;3556;53.500;10.176;2023-02-28T02:51:53;-1.70;99.90
7030;DHT22;3556;53.500;10.176;2023-02-28T02:54:25;-1.80;99.90
7030;DHT22;3556;53.500;10.176;2023-02-28T02:56:58;-1.80;99.90
7030;DHT22;3556;53.500;10.176;2023-02-28T02:59:25;-1.80;99.90
7030;DHT22;3556;53.500;10.176;2023-02-28T03:01:55;-1.80;99.90
7030;DHT22;3556;53.500;10.176;2023-02-28T03:04:24;-1.80;99.90
7030;DHT22;3556;53.500;10.176;2023-02-28T03:06:51;-1.90;99.90
7030;DHT22;3556;53.500;10.176;2023-02-28T03:09:23;-1.90;99.90
7030;DHT22;3556;53.500;10.176;2023-02-28T03:11:51;-1.90;99.90
7030;DHT22;3556;53.500;10.176;2023-02-28T03:14:55;-2.00;99.90
7030;DHT22;3556;53.500;10.176;2023-02-28T03:17:32;-2.00;99.90
7030;DHT22;3556;53.500;10.176;2023-02-28T03:20:33;-2.00;99.90
7030;DHT22;3556;53.500;10.176;2023-02-28T03:25:34;-2.10;99.90
7030;DHT22;3556;53.500;10.176;2023-02-28T03:28:05;-2.10;99.90
7030;DHT22;3556;53.500;10.176;2023-02-28T03:30:56;-2.10;99.90
7030;DHT22;3556;53.500;10.176;2023-02-28T03:33:30;-2.20;99.90
7030;DHT22;3556;53.500;10.176;2023-02-28T03:36:02;-2.20;99.90
7030;DHT22;3556;53.500;10.176;2023-02-28T03:38:45;-2.20;99.90
7030;DHT22;3556;53.500;10.176;2023-02-28T03:41:25;-2.20;99.90
7030;DHT22;3556;53.500;10.176;2023-02-28T03:44:00;-2.30;99.90
7030;DHT22;3556;53.500;10.176;2023-02-28T03:46:32;-2.30;99.90
7030;DHT22;3556;53.500;10.176;2023-02-28T03:49:07;-2.30;99.90
7030;DHT22;3556;53.500;10.176;2023-02-28T03:51:34;-2.40;99.90
7030;DHT22;3556;53.500;10.176;2023-02-28T03:54:07;-2.40;99.90
7030;DHT22;3556;53.500;10.176;2023-02-28T03:56:59;-2.40;99.90
7030;DHT22;3556;53.500;10.176;2023-02-28T03:59:39;-2.40;99.90
7030;DHT22;3556;53.500;10.176;2023-02-28T04:02:07;-2.40;99.90
7030;DHT22;3556;53.500;10.176;2023-02-28T04:04:34;-2.50;99.90
7030;DHT22;3556;53.500;10.176;2023-02-28T04:07:18;-2.50;99.90
7030;DHT22;3556;53.500;10.176;2023-02-28T04:09:43;-2.50;99.90
7030;DHT22;3556;53.500;10.176;2023-02-28T04:12:09;-2.50;99.90
7030;DHT22;3556;53.500;10.176;2023-02-28T04:14:35;-2.60;99.90
7030;DHT22;3556;53.500;10.176;2023-02-28T04:17:00;-2.60;99.90
7030;DHT22;3556;53.500;10.176;2023-02-28T04:19:26;-2.60;99.90
7030;DHT22;3556;53.500;10.176;2023-02-28T04:21:53;-2.60;99.90
7030;DHT22;3556;53.500;10.176;2023-02-28T04:24:24;-2.60;99.90
7030;DHT22;3556;53.500;10.176;2023-02-28T04:26:53;-2.60;99.90
7030;DHT22;3556;53.500;10.176;2023-02-28T04:29:25;-2.70;99.90
7030;DHT22;3556;53.500;10.176;2023-02-28T04:31:51;-2.70;99.90
7030;DHT22;3556;53.500;10.176;2023-02-28T04:34:19;-2.70;99.90
7030;DHT22;3556;53.500;10.176;2023-02-28T04:36:45;-2.70;99.90
7030;DHT22;3556;53.500;10.176;2023-02-28T04:39:11;-2.80;99.90
7030;DHT22;3556;53.500;10.176;2023-02-28T04:41:37;-2.80;99.90
7030;DHT22;3556;53.500;10.176;2023-02-28T04:44:03;-2.80;99.90
7030;DHT22;3556;53.500;10.176;2023-02-28T04:46:29;-2.80;99.90
7030;DHT22;3556;53.500;10.176;2023-02-28T04:48:56;-2.90;99.90
7030;DHT22;3556;53.500;10.176;2023-02-28T04:51:21;-2.90;99.90
7030;DHT22;3556;53.500;10.176;2023-02-28T04:53:48;-2.90;99.90
7030;DHT22;3556;53.500;10.176;2023-02-28T04:56:16;-2.90;99.90
7030;DHT22;3556;53.500;10.176;2023-02-28T04:58:42;-2.90;99.90
7030;DHT22;3556;53.500;10.176;2023-02-28T05:03:53;-3.00;99.90
7030;DHT22;3556;53.500;10.176;2023-02-28T05:06:20;-3.00;99.90
7030;DHT22;3556;53.500;10.176;2023-02-28T05:08:46;-3.00;99.90
7030;DHT22;3556;53.500;10.176;2023-02-28T05:11:19;-3.10;99.90
7030;DHT22;3556;53.500;10.176;2023-02-28T05:13:46;-3.10;99.90
7030;DHT22;3556;53.500;10.176;2023-02-28T05:16:12;-3.10;99.90
7030;DHT22;3556;53.500;10.176;2023-02-28T05:18:38;-3.10;99.90
7030;DHT22;3556;53.500;10.176;2023-02-28T05:21:04;-3.10;99.90
7030;DHT22;3556;53.500;10.176;2023-02-28T05:23:29;-3.10;99.90
7030;DHT22;3556;53.500;10.176;2023-02-28T05:25:55;-3.20;99.90
7030;DHT22;3556;53.500;10.176;2023-02-28T05:28:21;-3.20;99.90
7030;DHT22;3556;53.500;10.176;2023-02-28T05:30:47;-3.20;99.90
7030;DHT22;3556;53.500;10.176;2023-02-28T05:33:13;-3.20;99.90
7030;DHT22;3556;53.500;10.176;2023-02-28T05:35:40;-3.20;99.90
7030;DHT22;3556;53.500;10.176;2023-02-28T05:38:06;-3.30;99.90
7030;DHT22;3556;53.500;10.176;2023-02-28T05:40:31;-3.20;99.90
7030;DHT22;3556;53.500;10.176;2023-02-28T05:42:57;-3.30;99.90
7030;DHT22;3556;53.500;10.176;2023-02-28T05:45:23;-3.30;99.90
7030;DHT22;3556;53.500;10.176;2023-02-28T05:47:48;-3.30;99.90
7030;DHT22;3556;53.500;10.176;2023-02-28T05:50:14;-3.30;99.90
7030;DHT22;3556;53.500;10.176;2023-02-28T05:52:40;-3.30;99.90
7030;DHT22;3556;53.500;10.176;2023-02-28T05:55:06;-3.30;99.90
7030;DHT22;3556;53.500;10.176;2023-02-28T05:57:31;-3.40;99.90
7030;DHT22;3556;53.500;10.176;2023-02-28T05:59:57;-3.40;99.90
7030;DHT22;3556;53.500;10.176;2023-02-28T06:02:23;-3.40;99.90
7030;DHT22;3556;53.500;10.176;2023-02-28T06:04:48;-3.40;99.90
7030;DHT22;3556;53.500;10.176;2023-02-28T06:07:14;-3.50;99.90
7030;DHT22;3556;53.500;10.176;2023-02-28T06:09:40;-3.50;99.90
7030;DHT22;3556;53.500;10.176;2023-02-28T06:12:06;-3.50;99.90
7030;DHT22;3556;53.500;10.176;2023-02-28T06:14:33;-3.50;99.90
7030;DHT22;3556;53.500;10.176;2023-02-28T06:16:59;-3.50;99.90
7030;DHT22;3556;53.500;10.176;2023-02-28T06:19:25;-3.50;99.90
7030;DHT22;3556;53.500;10.176;2023-02-28T06:21:52;-3.50;99.90
7030;DHT22;3556;53.500;10.176;2023-02-28T06:24:19;-3.50;99.90
7030;DHT22;3556;53.500;10.176;2023-02-28T06:26:45;-3.50;99.90
7030;DHT22;3556;53.500;10.176;2023-02-28T06:29:11;-3.50;99.90
7030;DHT22;3556;53.500;10.176;2023-02-28T06:31:37;-3.50;99.90
7030;DHT22;3556;53.500;10.176;2023-02-28T06:34:04;-3.50;99.90
7030;DHT22;3556;53.500;10.176;2023-02-28T06:36:30;-3.50;99.90
7030;DHT22;3556;53.500;10.176;2023-02-28T06:38:57;-3.50;99.90
7030;DHT22;3556;53.500;10.176;2023-02-28T06:41:25;-3.50;99.90
7030;DHT22;3556;53.500;10.176;2023-02-28T06:43:52;-3.50;99.90
7030;DHT22;3556;53.500;10.176;2023-02-28T06:46:18;-3.50;99.90
7030;DHT22;3556;53.500;10.176;2023-02-28T06:48:44;-3.50;99.90
7030;DHT22;3556;53.500;10.176;2023-02-28T06:51:15;-3.50;99.90
7030;DHT22;3556;53.500;10.176;2023-02-28T06:53:42;-3.50;99.90
7030;DHT22;3556;53.500;10.176;2023-02-28T06:56:10;-3.40;99.90
7030;DHT22;3556;53.500;10.176;2023-02-28T06:58:36;-3.40;99.90
7030;DHT22;3556;53.500;10.176;2023-02-28T07:01:03;-3.30;99.90
7030;DHT22;3556;53.500;10.176;2023-02-28T07:03:29;-3.20;99.90
7030;DHT22;3556;53.500;10.176;2023-02-28T07:05:54;-3.20;99.90
7030;DHT22;3556;53.500;10.176;2023-02-28T07:08:22;-3.10;99.90
7030;DHT22;3556;53.500;10.176;2023-02-28T07:10:52;-3.00;99.90
7030;DHT22;3556;53.500;10.176;2023-02-28T07:13:17;-2.90;99.90
7030;DHT22;3556;53.500;10.176;2023-02-28T07:15:43;-2.80;99.90
7030;DHT22;3556;53.500;10.176;2023-02-28T07:18:08;-2.70;99.90
7030;DHT22;3556;53.500;10.176;2023-02-28T07:20:34;-2.50;99.90
7030;DHT22;3556;53.500;10.176;2023-02-28T07:23:00;-2.40;99.90
7030;DHT22;3556;53.500;10.176;2023-02-28T07:25:28;-2.20;99.90
7030;DHT22;3556;53.500;10.176;2023-02-28T07:27:55;-2.10;99.90
7030;DHT22;3556;53.500;10.176;2023-02-28T07:30:20;-2.00;99.90
7030;DHT22;3556;53.500;10.176;2023-02-28T07:32:46;-1.80;99.90
7030;DHT22;3556;53.500;10.176;2023-02-28T07:35:12;-1.60;99.90
7030;DHT22;3556;53.500;10.176;2023-02-28T07:37:37;-1.40;99.90
7030;DHT22;3556;53.500;10.176;2023-02-28T07:40:05;-1.20;99.90
7030;DHT22;3556;53.500;10.176;2023-02-28T07:42:35;-1.00;99.90
7030;DHT22;3556;53.500;10.176;2023-02-28T07:45:01;-0.80;99.90
7030;DHT22;3556;53.500;10.176;2023-02-28T07:47:29;-0.60;99.90
7030;DHT22;3556;53.500;10.176;2023-02-28T07:49:55;-0.40;99.90
7030;DHT22;3556;53.500;10.176;2023-02-28T07:52:21;-0.20;99.90
7030;DHT22;3556;53.500;10.176;2023-02-28T07:54:48;0.00;99.90
7030;DHT22;3556;53.500;10.176;2023-02-28T07:57:14;0.20;99.90
7030;DHT22;3556;53.500;10.176;2023-02-28T07:59:40;0.30;99.90
7030;DHT22;3556;53.500;10.176;2023-02-28T08:02:05;0.60;99.90
7030;DHT22;3556;53.500;10.176;2023-02-28T08:04:34;0.80;99.90
7030;DHT22;3556;53.500;10.176;2023-02-28T08:07:00;1.10;99.90
7030;DHT22;3556;53.500;10.176;2023-02-28T08:09:26;1.30;99.90
7030;DHT22;3556;53.500;10.176;2023-02-28T08:11:51;1.50;99.90
7030;DHT22;3556;53.500;10.176;2023-02-28T08:14:17;1.70;99.90
7030;DHT22;3556;53.500;10.176;2023-02-28T08:16:43;1.90;99.90
7030;DHT22;3556;53.500;10.176;2023-02-28T08:19:09;2.10;99.90
7030;DHT22;3556;53.500;10.176;2023-02-28T08:21:34;2.30;99.90
7030;DHT22;3556;53.500;10.176;2023-02-28T08:24:00;2.50;99.90
7030;DHT22;3556;53.500;10.176;2023-02-28T08:26:26;2.70;99.90
7030;DHT22;3556;53.500;10.176;2023-02-28T08:28:51;2.80;99.90
7030;DHT22;3556;53.500;10.176;2023-02-28T08:31:17;2.80;99.90
7030;DHT22;3556;53.500;10.176;2023-02-28T08:33:43;3.00;99.90
7030;DHT22;3556;53.500;10.176;2023-02-28T08:36:10;3.20;99.90
7030;DHT22;3556;53.500;10.176;2023-02-28T08:38:37;3.30;99.90
7030;DHT22;3556;53.500;10.176;2023-02-28T08:41:05;3.60;99.90
7030;DHT22;3556;53.500;10.176;2023-02-28T08:43:35;3.70;99.90
7030;DHT22;3556;53.500;10.176;2023-02-28T08:46:02;3.90;99.90
7030;DHT22;3556;53.500;10.176;2023-02-28T08:48:30;4.10;99.90
7030;DHT22;3556;53.500;10.176;2023-02-28T08:51:02;4.30;99.90
7030;DHT22;3556;53.500;10.176;2023-02-28T08:53:28;4.40;99.90
7030;DHT22;3556;53.500;10.176;2023-02-28T08:56:04;4.70;99.90
7030;DHT22;3556;53.500;10.176;2023-02-28T08:58:31;4.90;99.90
7030;DHT22;3556;53.500;10.176;2023-02-28T09:00:56;5.20;99.90
7030;DHT22;3556;53.500;10.176;2023-02-28T09:03:23;5.50;99.90
7030;DHT22;3556;53.500;10.176;2023-02-28T09:05:56;5.70;99.90
7030;DHT22;3556;53.500;10.176;2023-02-28T09:08:23;5.90;99.90
7030;DHT22;3556;53.500;10.176;2023-02-28T09:10:49;6.00;99.90
7030;DHT22;3556;53.500;10.176;2023-02-28T09:13:14;6.10;99.90
7030;DHT22;3556;53.500;10.176;2023-02-28T09:15:40;6.20;99.90
7030;DHT22;3556;53.500;10.176;2023-02-28T09:18:05;6.20;99.90
7030;DHT22;3556;53.500;10.176;2023-02-28T09:20:31;6.30;99.90
7030;DHT22;3556;53.500;10.176;2023-02-28T09:22:57;6.30;99.90
7030;DHT22;3556;53.500;10.176;2023-02-28T09:25:22;6.00;99.90
7030;DHT22;3556;53.500;10.176;2023-02-28T09:27:48;5.90;99.90
7030;DHT22;3556;53.500;10.176;2023-02-28T09:30:14;5.80;99.90
7030;DHT22;3556;53.500;10.176;2023-02-28T09:32:40;5.80;99.90
7030;DHT22;3556;53.500;10.176;2023-02-28T09:35:06;5.70;99.90
7030;DHT22;3556;53.500;10.176;2023-02-28T09:37:31;5.60;99.90
7030;DHT22;3556;53.500;10.176;2023-02-28T09:39:57;5.50;99.90
7030;DHT22;3556;53.500;10.176;2023-02-28T09:42:31;5.50;99.90
7030;DHT22;3556;53.500;10.176;2023-02-28T09:45:02;5.50;99.90
7030;DHT22;3556;53.500;10.176;2023-02-28T09:47:32;5.50;99.90
7030;DHT22;3556;53.500;10.176;2023-02-28T09:50:14;5.50;99.90
7030;DHT22;3556;53.500;10.176;2023-02-28T09:52:42;5.50;99.90
7030;DHT22;3556;53.500;10.176;2023-02-28T09:55:50;5.70;99.90
7030;DHT22;3556;53.500;10.176;2023-02-28T09:58:34;6.00;99.90
7030;DHT22;3556;53.500;10.176;2023-02-28T10:01:24;6.10;99.90
7030;DHT22;3556;53.500;10.176;2023-02-28T10:06:46;6.10;98.70
7030;DHT22;3556;53.500;10.176;2023-02-28T10:09:21;6.30;99.90
7030;DHT22;3556;53.500;10.176;2023-02-28T10:11:51;6.30;99.90
7030;DHT22;3556;53.500;10.176;2023-02-28T10:14:39;6.40;98.70
7030;DHT22;3556;53.500;10.176;2023-02-28T10:25:16;7.10;98.40
7030;DHT22;3556;53.500;10.176;2023-02-28T10:27:42;7.10;97.60
7030;DHT22;3556;53.500;10.176;2023-02-28T10:30:10;7.50;99.90
7030;DHT22;3556;53.500;10.176;2023-02-28T10:32:38;7.80;96.20
7030;DHT22;3556;53.500;10.176;2023-02-28T10:35:17;8.00;96.70
7030;DHT22;3556;53.500;10.176;2023-02-28T10:37:49;8.20;96.90
7030;DHT22;3556;53.500;10.176;2023-02-28T10:43:25;8.60;95.60
7030;DHT22;3556;53.500;10.176;2023-02-28T10:46:03;8.90;95.20
7030;DHT22;3556;53.500;10.176;2023-02-28T10:48:36;8.90;90.80
7030;DHT22;3556;53.500;10.176;2023-02-28T10:51:03;9.00;92.40
7030;DHT22;3556;53.500;10.176;2023-02-28T10:58:47;9.80;92.00
7030;DHT22;3556;53.500;10.176;2023-02-28T11:03:51;9.70;91.00
7030;DHT22;3556;53.500;10.176;2023-02-28T11:06:22;9.90;97.90
7030;DHT22;3556;53.500;10.176;2023-02-28T11:08:54;10.30;94.00
7030;DHT22;3556;53.500;10.176;2023-02-28T11:11:23;10.50;96.10
7030;DHT22;3556;53.500;10.176;2023-02-28T11:13:53;10.60;90.30
7030;DHT22;3556;53.500;10.176;2023-02-28T11:16:19;10.70;90.40
7030;DHT22;3556;53.500;10.176;2023-02-28T11:18:50;10.70;85.30
7030;DHT22;3556;53.500;10.176;2023-02-28T11:21:31;10.80;85.70
7030;DHT22;3556;53.500;10.176;2023-02-28T11:26:49;10.90;88.20
7030;DHT22;3556;53.500;10.176;2023-02-28T11:29:22;11.20;96.40
7030;DHT22;3556;53.500;10.176;2023-02-28T11:34:38;11.60;80.40
7030;DHT22;3556;53.500;10.176;2023-02-28T11:37:11;11.50;73.90
7030;DHT22;3556;53.500;10.176;2023-02-28T11:39:37;11.10;68.70
7030;DHT22;3556;53.500;10.176;2023-02-28T11:42:14;10.90;83.40
7030;DHT22;3556;53.500;10.176;2023-02-28T11:47:42;10.70;88.90
7030;DHT22;3556;53.500;10.176;2023-02-28T11:53:10;11.40;84.10
7030;DHT22;3556;53.500;10.176;2023-02-28T11:55:49;11.60;73.90
7030;DHT22;3556;53.500;10.176;2023-02-28T11:58:38;11.80;84.30
7030;DHT22;3556;53.500;10.176;2023-02-28T12:06:32;13.20;68.00
7030;DHT22;3556;53.500;10.176;2023-02-28T12:11:47;13.80;82.30
7030;DHT22;3556;53.500;10.176;2023-02-28T12:22:32;13.10;70.50
7030;DHT22;3556;53.500;10.176;2023-02-28T12:25:35;13.30;63.80
7030;DHT22;3556;53.500;10.176;2023-02-28T12:28:04;13.30;63.60
7030;DHT22;3556;53.500;10.176;2023-02-28T12:30:33;13.30;64.60
7030;DHT22;3556;53.500;10.176;2023-02-28T12:33:07;13.30;60.00
7030;DHT22;3556;53.500;10.176;2023-02-28T12:35:54;13.00;60.60
7030;DHT22;3556;53.500;10.176;2023-02-28T12:38:22;12.80;67.10
7030;DHT22;3556;53.500;10.176;2023-02-28T12:41:01;12.80;63.80
7030;DHT22;3556;53.500;10.176;2023-02-28T12:43:35;13.10;68.40
7030;DHT22;3556;53.500;10.176;2023-02-28T12:46:12;13.50;62.60
7030;DHT22;3556;53.500;10.176;2023-02-28T12:48:43;13.80;72.70
7030;DHT22;3556;53.500;10.176;2023-02-28T12:51:10;14.50;69.90
7030;DHT22;3556;53.500;10.176;2023-02-28T13:04:26;16.30;52.00
7030;DHT22;3556;53.500;10.176;2023-02-28T13:09:41;16.30;48.70
7030;DHT22;3556;53.500;10.176;2023-02-28T13:12:14;16.40;59.20
7030;DHT22;3556;53.500;10.176;2023-02-28T13:14:40;16.70;57.30
7030;DHT22;3556;53.500;10.176;2023-02-28T13:17:11;17.20;51.80
7030;DHT22;3556;53.500;10.176;2023-02-28T13:22:40;18.00;48.40
7030;DHT22;3556;53.500;10.176;2023-02-28T13:27:52;18.10;45.20
7030;DHT22;3556;53.500;10.176;2023-02-28T13:38:38;18.10;45.60
7030;DHT22;3556;53.500;10.176;2023-02-28T13:58:09;20.90;47.40
7030;DHT22;3556;53.500;10.176;2023-02-28T14:03:27;21.80;42.90
7030;DHT22;3556;53.500;10.176;2023-02-28T14:09:29;22.00;38.40
7030;DHT22;3556;53.500;10.176;2023-02-28T14:11:37;22.00;39.10
7030;DHT22;3556;53.500;10.176;2023-02-28T14:14:05;21.80;37.00
7030;DHT22;3556;53.500;10.176;2023-02-28T14:16:41;21.60;36.10
7030;DHT22;3556;53.500;10.176;2023-02-28T14:19:29;21.20;34.70
7030;DHT22;3556;53.500;10.176;2023-02-28T14:22:02;20.90;40.50
7030;DHT22;3556;53.500;10.176;2023-02-28T14:24:59;20.90;36.70
7030;DHT22;3556;53.500;10.176;2023-02-28T14:36:16;21.10;33.70
7030;DHT22;3556;53.500;10.176;2023-02-28T14:39:06;20.80;35.00
7030;DHT22;3556;53.500;10.176;2023-02-28T14:41:38;21.10;38.00
7030;DHT22;3556;53.500;10.176;2023-02-28T14:44:19;21.50;38.80
7030;DHT22;3556;53.500;10.176;2023-02-28T14:46:53;21.80;36.30
7030;DHT22;3556;53.500;10.176;2023-02-28T14:49:29;21.80;36.70
7030;DHT22;3556;53.500;10.176;2023-02-28T14:52:14;21.40;34.90
7030;DHT22;3556;53.500;10.176;2023-02-28T14:54:41;21.10;37.50
7030;DHT22;3556;53.500;10.176;2023-02-28T14:57:24;21.20;37.00
7030;DHT22;3556;53.500;10.176;2023-02-28T15:00:16;21.20;34.90
7030;DHT22;3556;53.500;10.176;2023-02-28T15:02:43;21.30;34.50
7030;DHT22;3556;53.500;10.176;2023-02-28T15:05:22;21.10;33.00
7030;DHT22;3556;53.500;10.176;2023-02-28T15:08:04;20.90;34.70
7030;DHT22;3556;53.500;10.176;2023-02-28T15:10:31;20.70;35.40
7030;DHT22;3556;53.500;10.176;2023-02-28T15:13:02;21.00;35.70
7030;DHT22;3556;53.500;10.176;2023-02-28T15:15:49;21.40;36.20
7030;DHT22;3556;53.500;10.176;2023-02-28T15:21:21;22.10;34.60
7030;DHT22;3556;53.500;10.176;2023-02-28T15:24:01;22.00;34.90
7030;DHT22;3556;53.500;10.176;2023-02-28T15:26:53;21.40;35.50
7030;DHT22;3556;53.500;10.176;2023-02-28T15:29:23;21.00;33.00
7030;DHT22;3556;53.500;10.176;2023-02-28T15:31:55;20.80;33.80
7030;DHT22;3556;53.500;10.176;2023-02-28T15:34:36;20.60;32.70
7030;DHT22;3556;53.500;10.176;2023-02-28T15:37:05;20.40;32.50
7030;DHT22;3556;53.500;10.176;2023-02-28T15:39:41;20.30;31.90
7030;DHT22;3556;53.500;10.176;2023-02-28T15:42:12;20.00;34.10
7030;DHT22;3556;53.500;10.176;2023-02-28T15:44:38;19.70;32.70
7030;DHT22;3556;53.500;10.176;2023-02-28T15:47:06;19.20;34.40
7030;DHT22;3556;53.500;10.176;2023-02-28T15:49:40;18.60;35.10
7030;DHT22;3556;53.500;10.176;2023-02-28T15:52:09;17.80;35.10
7030;DHT22;3556;53.500;10.176;2023-02-28T15:54:37;16.70;36.20
7030;DHT22;3556;53.500;10.176;2023-02-28T15:57:06;15.60;36.60
7030;DHT22;3556;53.500;10.176;2023-02-28T15:59:36;14.60;39.20
7030;DHT22;3556;53.500;10.176;2023-02-28T16:02:11;13.70;40.80
7030;DHT22;3556;53.500;10.176;2023-02-28T16:04:58;13.00;43.10
7030;DHT22;3556;53.500;10.176;2023-02-28T16:07:23;12.30;43.90
7030;DHT22;3556;53.500;10.176;2023-02-28T16:09:50;11.70;45.30
7030;DHT22;3556;53.500;10.176;2023-02-28T16:12:16;11.40;43.30
7030;DHT22;3556;53.500;10.176;2023-02-28T16:14:41;11.20;44.70
7030;DHT22;3556;53.500;10.176;2023-02-28T16:17:20;11.00;46.70
7030;DHT22;3556;53.500;10.176;2023-02-28T16:19:46;10.90;45.80
7030;DHT22;3556;53.500;10.176;2023-02-28T16:22:12;10.60;46.80
7030;DHT22;3556;53.500;10.176;2023-02-28T16:24:37;10.40;46.80
7030;DHT22;3556;53.500;10.176;2023-02-28T16:27:04;10.20;47.20
7030;DHT22;3556;53.500;10.176;2023-02-28T16:29:33;9.80;50.60
7030;DHT22;3556;53.500;10.176;2023-02-28T16:32:00;9.50;49.70
7030;DHT22;3556;53.500;10.176;2023-02-28T16:34:26;9.30;50.60
7030;DHT22;3556;53.500;10.176;2023-02-28T16:36:52;9.10;52.50
7030;DHT22;3556;53.500;10.176;2023-02-28T16:39:18;9.00;51.90
7030;DHT22;3556;53.500;10.176;2023-02-28T16:41:47;8.80;51.90
7030;DHT22;3556;53.500;10.176;2023-02-28T16:44:28;8.60;52.20
7030;DHT22;3556;53.500;10.176;2023-02-28T16:46:54;8.40;51.90
7030;DHT22;3556;53.500;10.176;2023-02-28T16:49:19;8.30;52.80
7030;DHT22;3556;53.500;10.176;2023-02-28T16:51:46;8.10;53.50
7030;DHT22;3556;53.500;10.176;2023-02-28T16:54:12;7.90;54.10
7030;DHT22;3556;53.500;10.176;2023-02-28T16:56:41;7.70;54.50
7030;DHT22;3556;53.500;10.176;2023-02-28T16:59:08;7.50;54.70
7030;DHT22;3556;53.500;10.176;2023-02-28T17:01:35;7.40;55.60
7030;DHT22;3556;53.500;10.176;2023-02-28T17:04:01;7.20;56.50
7030;DHT22;3556;53.500;10.176;2023-02-28T17:06:28;7.00;57.90
7030;DHT22;3556;53.500;10.176;2023-02-28T17:08:55;6.80;59.40
7030;DHT22;3556;53.500;10.176;2023-02-28T17:11:21;6.60;60.50
7030;DHT22;3556;53.500;10.176;2023-02-28T17:13:47;6.40;62.70
7030;DHT22;3556;53.500;10.176;2023-02-28T17:18:45;6.00;64.90
7030;DHT22;3556;53.500;10.176;2023-02-28T17:21:16;5.80;66.30
7030;DHT22;3556;53.500;10.176;2023-02-28T17:23:42;5.60;68.40
7030;DHT22;3556;53.500;10.176;2023-02-28T17:26:13;5.50;70.10
7030;DHT22;3556;53.500;10.176;2023-02-28T17:28:39;5.30;70.60
7030;DHT22;3556;53.500;10.176;2023-02-28T17:31:04;5.20;79.60
7030;DHT22;3556;53.500;10.176;2023-02-28T17:33:30;5.00;79.00
7030;DHT22;3556;53.500;10.176;2023-02-28T17:35:55;4.90;79.60
7030;DHT22;3556;53.500;10.176;2023-02-28T17:38:22;4.70;80.50
7030;DHT22;3556;53.500;10.176;2023-02-28T17:40:48;4.60;81.90
7030;DHT22;3556;53.500;10.176;2023-02-28T17:43:14;4.50;83.30
7030;DHT22;3556;53.500;10.176;2023-02-28T17:45:40;4.30;84.30
7030;DHT22;3556;53.500;10.176;2023-02-28T17:48:08;4.20;86.50
7030;DHT22;3556;53.500;10.176;2023-02-28T17:50:34;4.00;88.20
7030;DHT22;3556;53.500;10.176;2023-02-28T17:53:00;3.80;90.30
7030;DHT22;3556;53.500;10.176;2023-02-28T17:55:26;3.70;91.30
7030;DHT22;3556;53.500;10.176;2023-02-28T17:57:52;3.50;92.10
7030;DHT22;3556;53.500;10.176;2023-02-28T18:00:18;3.40;93.00
7030;DHT22;3556;53.500;10.176;2023-02-28T18:02:43;3.30;94.10
7030;DHT22;3556;53.500;10.176;2023-02-28T18:05:10;3.20;95.00
7030;DHT22;3556;53.500;10.176;2023-02-28T18:07:39;3.00;96.00
7030;DHT22;3556;53.500;10.176;2023-02-28T18:10:06;2.90;97.10
7030;DHT22;3556;53.500;10.176;2023-02-28T18:12:32;2.80;97.70
7030;DHT22;3556;53.500;10.176;2023-02-28T18:14:57;2.70;98.60
7030;DHT22;3556;53.500;10.176;2023-02-28T18:17:23;2.60;99.20
7030;DHT22;3556;53.500;10.176;2023-02-28T18:19:49;2.50;99.90
7030;DHT22;3556;53.500;10.176;2023-02-28T18:22:14;2.30;99.90
7030;DHT22;3556;53.500;10.176;2023-02-28T18:24:40;2.20;99.90
7030;DHT22;3556;53.500;10.176;2023-02-28T18:27:05;2.10;99.90
7030;DHT22;3556;53.500;10.176;2023-02-28T18:29:32;2.00;99.90
7030;DHT22;3556;53.500;10.176;2023-02-28T18:31:58;2.00;99.90